createdAt,value
2019-03-15T00:00:28.462Z,80.66
2019-03-15T00:01:20.538Z,80.88
2019-03-15T00:02:13.089Z,80.39
2019-03-15T00:03:03.616Z,80.80
2019-03-15T00:03:54.265Z,81.01
2019-03-15T00:04:44.979Z,81.17
2019-03-15T00:05:36.076Z,80.27
2019-03-15T00:06:26.572Z,79.98
2019-03-15T00:07:17.328Z,79.25
2019-03-15T00:08:07.823Z,78.57
2019-03-15T00:08:57.661Z,79.39
2019-03-15T00:09:48.802Z,79.36
2019-03-15T00:10:39.261Z,79.64
2019-03-15T00:11:30.070Z,79.52
2019-03-15T00:12:19.917Z,80.79
2019-03-15T00:13:10.706Z,81.47
2019-03-15T00:14:00.959Z,80.90
2019-03-15T00:14:51.725Z,80.73
2019-03-15T00:15:41.809Z,81.32
2019-03-15T00:16:31.962Z,81.72
2019-03-15T00:17:25.255Z,81.78
2019-03-15T00:18:15.665Z,81.49
2019-03-15T00:19:06.033Z,81.49
2019-03-15T00:19:56.899Z,81.61
2019-03-15T00:20:47.282Z,81.45
2019-03-15T00:21:37.448Z,80.81
2019-03-15T00:22:27.278Z,80.20
2019-03-15T00:23:18.132Z,80.29
2019-03-15T00:24:08.340Z,80.17
2019-03-15T00:25:00.199Z,80.20
2019-03-15T00:25:50.098Z,79.52
2019-03-15T00:26:41.328Z,79.89
2019-03-15T00:27:31.487Z,79.98
2019-03-15T00:28:22.000Z,80.07
2019-03-15T00:29:12.651Z,80.10
2019-03-15T00:30:03.871Z,79.50
2019-03-15T00:30:54.107Z,78.74
2019-03-15T00:31:44.513Z,78.66
2019-03-15T00:32:34.452Z,78.85
2019-03-15T00:33:24.686Z,78.54
2019-03-15T00:34:15.121Z,78.86
2019-03-15T00:35:06.092Z,79.09
2019-03-15T00:35:56.486Z,78.75
2019-03-15T00:36:47.275Z,79.59
2019-03-15T00:37:38.911Z,80.70
2019-03-15T00:38:29.346Z,80.90
2019-03-15T00:39:19.490Z,80.91
2019-03-15T00:40:12.366Z,80.55
2019-03-15T00:41:02.971Z,79.67
2019-03-15T00:41:54.318Z,79.37
2019-03-15T00:42:44.233Z,79.18
2019-03-15T00:43:34.251Z,79.10
2019-03-15T00:44:25.410Z,78.51
2019-03-15T00:45:15.932Z,78.65
2019-03-15T00:46:06.314Z,78.89
2019-03-15T00:46:56.838Z,78.80
2019-03-15T00:47:47.191Z,79.02
2019-03-15T00:48:37.492Z,79.16
2019-03-15T00:49:28.978Z,78.68
2019-03-15T00:50:19.660Z,78.59
2019-03-15T00:51:10.066Z,78.29
2019-03-15T00:52:00.143Z,77.86
2019-03-15T00:52:50.880Z,77.74
2019-03-15T00:53:40.880Z,78.32
2019-03-15T00:54:31.180Z,78.43
2019-03-15T00:55:22.072Z,78.06
2019-03-15T00:56:12.120Z,77.69
2019-03-15T00:57:02.065Z,77.68
2019-03-15T00:57:52.393Z,78.17
2019-03-15T00:58:42.502Z,77.97
2019-03-15T00:59:32.580Z,77.99
2019-03-15T01:00:26.087Z,77.48
2019-03-15T01:01:16.455Z,77.65
2019-03-15T01:02:06.754Z,77.52
2019-03-15T01:02:57.120Z,77.69
2019-03-15T01:03:47.436Z,77.67
2019-03-15T01:04:37.897Z,77.61
2019-03-15T01:05:28.990Z,77.40
2019-03-15T01:06:19.115Z,76.95
2019-03-15T01:07:09.607Z,77.57
2019-03-15T01:08:01.461Z,77.47
2019-03-15T01:08:52.352Z,77.12
2019-03-15T01:09:42.396Z,77.49
2019-03-15T01:10:32.680Z,77.40
2019-03-15T01:11:22.721Z,76.47
2019-03-15T01:12:13.049Z,76.82
2019-03-15T01:13:03.753Z,76.97
2019-03-15T01:13:54.525Z,77.86
2019-03-15T01:14:45.326Z,77.73
2019-03-15T01:15:37.165Z,77.20
2019-03-15T01:16:27.386Z,77.64
2019-03-15T01:17:17.964Z,77.71
2019-03-15T01:18:08.622Z,77.71
2019-03-15T01:18:58.858Z,77.83
2019-03-15T01:19:48.856Z,77.93
2019-03-15T01:20:39.337Z,77.64
2019-03-15T01:21:29.671Z,77.76
2019-03-15T01:22:20.195Z,77.66
2019-03-15T01:23:10.070Z,77.58
2019-03-15T01:24:00.317Z,77.56
2019-03-15T01:24:51.331Z,77.87
2019-03-15T01:25:41.162Z,78.01
2019-03-15T01:26:31.691Z,77.69
2019-03-15T01:27:22.122Z,77.92
2019-03-15T01:28:12.382Z,77.98
2019-03-15T01:29:02.817Z,78.05
2019-03-15T01:29:52.958Z,78.43
2019-03-15T01:30:43.219Z,78.87
2019-03-15T01:31:33.880Z,79.14
2019-03-15T01:32:23.974Z,79.67
2019-03-15T01:33:16.155Z,79.48
2019-03-15T01:34:08.095Z,79.78
2019-03-15T01:34:58.070Z,79.44
2019-03-15T01:35:48.258Z,79.37
2019-03-15T01:36:38.377Z,79.78
2019-03-15T01:37:28.382Z,80.63
2019-03-15T01:38:19.700Z,81.13
2019-03-15T01:39:10.168Z,80.89
2019-03-15T01:40:00.817Z,80.85
2019-03-15T01:40:50.280Z,81.29
2019-03-15T01:41:40.603Z,80.95
2019-03-15T01:42:31.889Z,80.81
2019-03-15T01:43:21.983Z,80.22
2019-03-15T01:44:12.051Z,80.49
2019-03-15T01:45:02.490Z,80.71
2019-03-15T01:45:53.266Z,80.82
2019-03-15T01:46:43.224Z,80.94
2019-03-15T01:47:33.482Z,81.05
2019-03-15T01:48:24.072Z,81.31
2019-03-15T01:49:17.971Z,80.74
2019-03-15T01:50:08.487Z,81.17
2019-03-15T01:50:59.698Z,80.79
2019-03-15T01:51:50.151Z,80.92
2019-03-15T01:52:40.455Z,81.07
2019-03-15T01:53:31.032Z,81.05
2019-03-15T01:54:21.859Z,80.49
2019-03-15T01:55:12.388Z,79.80
2019-03-15T01:56:04.024Z,80.08
2019-03-15T01:56:53.821Z,79.94
2019-03-15T01:57:43.978Z,80.06
2019-03-15T01:58:34.867Z,80.01
2019-03-15T01:59:25.362Z,79.49
2019-03-15T02:00:16.507Z,79.20
2019-03-15T02:01:10.182Z,79.41
2019-03-15T02:02:01.029Z,78.42
2019-03-15T02:02:51.592Z,78.30
2019-03-15T02:03:42.016Z,78.01
2019-03-15T02:04:32.603Z,77.80
2019-03-15T02:05:22.918Z,78.20
2019-03-15T02:06:14.169Z,78.26
2019-03-15T02:07:04.412Z,78.30
2019-03-15T02:07:54.765Z,78.70
2019-03-15T02:08:44.901Z,78.99
2019-03-15T02:09:35.675Z,78.89
2019-03-15T02:10:26.296Z,78.71
2019-03-15T02:11:16.492Z,78.63
2019-03-15T02:12:07.711Z,78.18
2019-03-15T02:12:58.510Z,78.49
2019-03-15T02:13:48.864Z,78.70
2019-03-15T02:14:39.488Z,78.80
2019-03-15T02:15:29.341Z,79.04
2019-03-15T02:16:19.963Z,78.89
2019-03-15T02:17:10.215Z,78.94
2019-03-15T02:18:00.235Z,78.87
2019-03-15T02:18:51.080Z,78.66
2019-03-15T02:19:41.606Z,78.65
2019-03-15T02:20:32.344Z,79.26
2019-03-15T02:21:22.859Z,78.65
2019-03-15T02:22:13.043Z,78.63
2019-03-15T02:23:03.033Z,78.68
2019-03-15T02:23:53.896Z,78.74
2019-03-15T02:24:44.422Z,78.82
2019-03-15T02:25:35.050Z,79.08
2019-03-15T02:26:25.328Z,78.61
2019-03-15T02:27:16.442Z,78.75
2019-03-15T02:28:07.212Z,78.51
2019-03-15T02:28:58.728Z,78.60
2019-03-15T02:29:48.925Z,78.38
2019-03-15T02:30:39.095Z,78.52
2019-03-15T02:31:29.239Z,78.25
2019-03-15T02:32:19.294Z,78.65
2019-03-15T02:33:10.396Z,78.37
2019-03-15T02:34:00.928Z,78.46
2019-03-15T02:34:51.663Z,78.64
2019-03-15T02:35:41.572Z,78.72
2019-03-15T02:36:31.978Z,78.52
2019-03-15T02:37:21.850Z,78.17
2019-03-15T02:38:12.353Z,78.37
2019-03-15T02:39:03.312Z,78.99
2019-03-15T02:39:53.238Z,79.02
2019-03-15T02:40:43.197Z,78.75
2019-03-15T02:41:33.460Z,78.70
2019-03-15T02:42:23.829Z,78.46
2019-03-15T02:43:13.955Z,78.28
2019-03-15T02:44:03.888Z,78.29
2019-03-15T02:44:54.572Z,78.33
2019-03-15T02:45:45.182Z,78.21
2019-03-15T02:46:35.015Z,78.09
2019-03-15T02:47:25.434Z,77.45
2019-03-15T02:48:15.815Z,77.77
2019-03-15T02:49:05.795Z,77.95
2019-03-15T02:49:57.004Z,78.07
2019-03-15T02:50:47.540Z,77.93
2019-03-15T02:51:38.209Z,77.56
2019-03-15T02:52:28.199Z,77.65
2019-03-15T02:53:18.581Z,77.61
2019-03-15T02:54:09.210Z,77.77
2019-03-15T02:55:00.015Z,77.83
2019-03-15T02:55:50.450Z,77.76
2019-03-15T02:56:42.472Z,77.65
2019-03-15T02:57:32.693Z,77.77
2019-03-15T02:58:22.969Z,77.62
2019-03-15T02:59:13.822Z,77.32
2019-03-15T03:00:04.828Z,77.44
2019-03-15T03:00:54.907Z,77.71
2019-03-15T03:01:45.419Z,77.70
2019-03-15T03:02:35.751Z,77.54
2019-03-15T03:03:26.003Z,77.43
2019-03-15T03:04:16.983Z,77.67
2019-03-15T03:05:07.975Z,77.79
2019-03-15T03:05:58.592Z,77.76
2019-03-15T03:06:49.223Z,77.28
2019-03-15T03:07:39.259Z,76.93
2019-03-15T03:08:30.040Z,76.99
2019-03-15T03:09:19.882Z,77.28
2019-03-15T03:10:10.856Z,77.59
2019-03-15T03:11:01.668Z,77.18
2019-03-15T03:11:51.605Z,77.41
2019-03-15T03:12:43.986Z,77.13
2019-03-15T03:13:33.489Z,77.16
2019-03-15T03:14:24.115Z,76.83
2019-03-15T03:15:14.621Z,77.12
2019-03-15T03:16:05.211Z,76.63
2019-03-15T03:16:55.746Z,76.67
2019-03-15T03:17:46.483Z,76.67
2019-03-15T03:18:37.119Z,76.76
2019-03-15T03:19:28.211Z,76.57
2019-03-15T03:20:18.011Z,76.86
2019-03-15T03:21:08.513Z,77.33
2019-03-15T03:21:58.514Z,77.70
2019-03-15T03:22:48.712Z,77.21
2019-03-15T03:23:39.578Z,76.15
2019-03-15T03:24:30.025Z,76.46
2019-03-15T03:25:20.735Z,75.94
2019-03-15T03:26:11.463Z,76.53
2019-03-15T03:27:03.292Z,76.03
2019-03-15T03:27:54.075Z,76.17
2019-03-15T03:28:44.512Z,76.34
2019-03-15T03:29:35.394Z,76.71
2019-03-15T03:30:25.315Z,76.66
2019-03-15T03:31:16.390Z,76.67
2019-03-15T03:32:07.085Z,76.57
2019-03-15T03:32:57.560Z,76.39
2019-03-15T03:33:47.657Z,75.93
2019-03-15T03:34:40.504Z,75.80
2019-03-15T03:35:29.254Z,75.10
2019-03-15T03:36:19.868Z,75.29
2019-03-15T03:37:09.756Z,75.32
2019-03-15T03:37:59.884Z,75.32
2019-03-15T03:38:50.661Z,75.11
2019-03-15T03:39:41.169Z,74.90
2019-03-15T03:40:31.834Z,74.54
2019-03-15T03:41:23.175Z,74.40
2019-03-15T03:42:12.271Z,74.52
2019-03-15T03:43:02.737Z,74.71
2019-03-15T03:43:52.715Z,74.29
2019-03-15T03:44:42.799Z,74.16
2019-03-15T03:45:32.827Z,74.00
2019-03-15T03:46:24.530Z,74.55
2019-03-15T03:47:15.127Z,74.05
2019-03-15T03:48:05.489Z,74.10
2019-03-15T03:48:55.573Z,73.43
2019-03-15T03:49:45.611Z,73.28
2019-03-15T03:50:35.785Z,72.75
2019-03-15T03:51:25.708Z,72.40
2019-03-15T03:52:16.030Z,72.34
2019-03-15T03:53:06.321Z,72.40
2019-03-15T03:53:56.478Z,72.01
2019-03-15T03:54:46.732Z,72.41
2019-03-15T03:55:37.417Z,72.75
2019-03-15T03:56:28.176Z,72.17
2019-03-15T03:57:18.344Z,72.22
2019-03-15T03:58:08.969Z,72.49
2019-03-15T03:58:59.845Z,72.01
2019-03-15T03:59:50.781Z,71.40
2019-03-15T04:00:41.125Z,71.47
2019-03-15T04:01:31.286Z,70.56
2019-03-15T04:02:22.044Z,71.13
2019-03-15T04:03:12.453Z,70.60
2019-03-15T04:04:02.456Z,71.34
2019-03-15T04:04:53.492Z,71.65
2019-03-15T04:05:43.966Z,71.42
2019-03-15T04:06:33.844Z,70.79
2019-03-15T04:07:24.474Z,71.48
2019-03-15T04:08:14.931Z,71.73
2019-03-15T04:09:07.184Z,71.95
2019-03-15T04:09:57.410Z,71.59
2019-03-15T04:10:47.507Z,71.44
2019-03-15T04:11:38.345Z,71.64
2019-03-15T04:12:28.851Z,71.68
2019-03-15T04:13:19.211Z,71.02
2019-03-15T04:14:09.386Z,71.75
2019-03-15T04:14:59.635Z,71.12
2019-03-15T04:15:49.724Z,71.58
2019-03-15T04:16:39.996Z,71.89
2019-03-15T04:17:30.438Z,71.38
2019-03-15T04:18:21.315Z,71.45
2019-03-15T04:19:12.323Z,71.49
2019-03-15T04:20:03.203Z,70.65
2019-03-15T04:20:53.449Z,71.09
2019-03-15T04:21:43.601Z,71.15
2019-03-15T04:22:33.546Z,71.50
2019-03-15T04:23:24.271Z,71.25
2019-03-15T04:24:14.966Z,70.99
2019-03-15T04:25:07.248Z,71.14
2019-03-15T04:25:59.108Z,71.25
2019-03-15T04:26:49.201Z,71.10
2019-03-15T04:27:40.487Z,71.37
2019-03-15T04:28:31.288Z,71.38
2019-03-15T04:29:21.375Z,71.81
2019-03-15T04:30:12.183Z,71.09
2019-03-15T04:31:02.855Z,71.28
2019-03-15T04:31:53.963Z,71.55
2019-03-15T04:32:44.542Z,71.80
2019-03-15T04:33:35.815Z,71.53
2019-03-15T04:34:28.410Z,71.59
2019-03-15T04:35:16.064Z,70.89
2019-03-15T04:36:07.240Z,71.27
2019-03-15T04:36:59.134Z,71.14
2019-03-15T04:37:48.891Z,70.67
2019-03-15T04:38:39.737Z,71.06
2019-03-15T04:39:29.705Z,71.07
2019-03-15T04:40:20.397Z,71.44
2019-03-15T04:41:10.913Z,71.06
2019-03-15T04:42:01.811Z,71.15
2019-03-15T04:42:51.795Z,71.66
2019-03-15T04:43:41.999Z,71.25
2019-03-15T04:44:32.239Z,71.28
2019-03-15T04:45:22.301Z,71.20
2019-03-15T04:46:12.941Z,71.33
2019-03-15T04:47:03.612Z,71.33
2019-03-15T04:47:53.968Z,71.61
2019-03-15T04:48:44.294Z,71.31
2019-03-15T04:49:34.730Z,71.28
2019-03-15T04:50:25.567Z,71.53
2019-03-15T04:51:17.040Z,71.00
2019-03-15T04:52:07.757Z,71.60
2019-03-15T04:52:58.935Z,71.41
2019-03-15T04:53:49.576Z,71.69
2019-03-15T04:54:39.981Z,71.01
2019-03-15T04:55:30.574Z,71.26
2019-03-15T04:56:20.907Z,71.00
2019-03-15T04:57:11.442Z,71.20
2019-03-15T04:58:01.885Z,71.32
2019-03-15T04:58:51.969Z,71.12
2019-03-15T04:59:42.152Z,70.71
2019-03-15T05:00:33.840Z,70.05
2019-03-15T05:01:24.879Z,70.19
2019-03-15T05:02:14.940Z,69.88
2019-03-15T05:03:05.175Z,69.92
2019-03-15T05:03:55.321Z,69.71
2019-03-15T05:04:45.320Z,70.18
2019-03-15T05:05:35.589Z,69.65
2019-03-15T05:06:26.661Z,68.73
2019-03-15T05:07:16.976Z,69.44
2019-03-15T05:08:07.613Z,69.71
2019-03-15T05:08:59.065Z,69.58
2019-03-15T05:09:50.468Z,69.57
2019-03-15T05:10:40.351Z,70.03
2019-03-15T05:11:30.995Z,69.81
2019-03-15T05:12:21.856Z,69.16
2019-03-15T05:13:11.743Z,69.10
2019-03-15T05:14:02.280Z,69.12
2019-03-15T05:14:53.424Z,69.24
2019-03-15T05:15:44.201Z,69.07
2019-03-15T05:16:35.067Z,69.41
2019-03-15T05:17:25.306Z,69.59
2019-03-15T05:18:15.893Z,69.51
2019-03-15T05:19:06.265Z,68.83
2019-03-15T05:19:56.351Z,69.24
2019-03-15T05:20:46.911Z,68.64
2019-03-15T05:21:37.421Z,68.66
2019-03-15T05:22:27.637Z,69.06
2019-03-15T05:23:18.247Z,69.22
2019-03-15T05:24:09.572Z,69.21
2019-03-15T05:24:59.559Z,69.12
2019-03-15T05:25:50.456Z,69.19
2019-03-15T05:26:40.993Z,68.87
2019-03-15T05:27:31.494Z,69.07
2019-03-15T05:28:22.452Z,69.05
2019-03-15T05:29:13.232Z,68.79
2019-03-15T05:30:04.699Z,68.87
2019-03-15T05:30:55.459Z,69.22
2019-03-15T05:31:46.151Z,69.07
2019-03-15T05:32:36.591Z,69.28
2019-03-15T05:33:27.046Z,69.61
2019-03-15T05:34:17.747Z,69.79
2019-03-15T05:35:09.439Z,69.50
2019-03-15T05:36:00.503Z,69.07
2019-03-15T05:36:50.561Z,69.50
2019-03-15T05:37:40.763Z,69.48
2019-03-15T05:38:30.904Z,69.21
2019-03-15T05:39:24.209Z,69.05
2019-03-15T05:40:15.023Z,68.32
2019-03-15T05:41:05.791Z,68.52
2019-03-15T05:41:56.843Z,69.41
2019-03-15T05:42:46.869Z,68.76
2019-03-15T05:43:37.395Z,69.15
2019-03-15T05:44:27.661Z,69.27
2019-03-15T05:45:18.697Z,68.80
2019-03-15T05:46:09.256Z,69.13
2019-03-15T05:47:00.175Z,68.79
2019-03-15T05:47:51.441Z,68.89
2019-03-15T05:48:42.071Z,69.34
2019-03-15T05:49:32.126Z,69.11
2019-03-15T05:50:22.907Z,68.92
2019-03-15T05:51:13.270Z,68.66
2019-03-15T05:52:04.064Z,69.01
2019-03-15T05:52:54.586Z,69.32
2019-03-15T05:53:45.159Z,68.49
2019-03-15T05:54:35.561Z,68.62
2019-03-15T05:55:26.779Z,68.72
2019-03-15T05:56:16.611Z,69.41
2019-03-15T05:57:08.056Z,69.70
2019-03-15T05:57:58.879Z,69.39
2019-03-15T05:58:48.974Z,69.39
2019-03-15T05:59:41.221Z,69.48
2019-03-15T06:00:31.891Z,69.51
2019-03-15T06:01:23.631Z,69.41
2019-03-15T06:02:13.958Z,69.30
2019-03-15T06:03:05.085Z,69.35
2019-03-15T06:03:55.517Z,69.67
2019-03-15T06:04:46.009Z,70.06
2019-03-15T06:05:36.132Z,69.75
2019-03-15T06:06:26.017Z,69.96
2019-03-15T06:07:16.917Z,70.14
2019-03-15T06:08:08.660Z,70.35
2019-03-15T06:08:59.835Z,70.55
2019-03-15T06:09:50.221Z,70.29
2019-03-15T06:10:41.578Z,70.26
2019-03-15T06:11:33.441Z,70.70
2019-03-15T06:12:24.202Z,70.98
2019-03-15T06:13:14.656Z,71.28
2019-03-15T06:14:05.645Z,71.25
2019-03-15T06:14:55.559Z,71.51
2019-03-15T06:15:46.741Z,71.88
2019-03-15T06:16:37.447Z,73.44
2019-03-15T06:17:28.726Z,74.96
2019-03-15T06:18:19.699Z,75.53
2019-03-15T06:19:10.546Z,75.81
2019-03-15T06:20:01.143Z,76.55
2019-03-15T06:20:52.511Z,77.14
2019-03-15T06:21:42.923Z,76.95
2019-03-15T06:22:33.365Z,77.16
2019-03-15T06:23:24.456Z,76.89
2019-03-15T06:24:14.687Z,77.31
2019-03-15T06:25:05.870Z,77.04
2019-03-15T06:25:55.445Z,77.37
2019-03-15T06:26:45.901Z,78.46
2019-03-15T06:27:36.246Z,78.84
2019-03-15T06:28:27.049Z,78.41
2019-03-15T06:29:17.746Z,79.03
2019-03-15T06:30:08.583Z,78.58
2019-03-15T06:30:59.584Z,78.25
2019-03-15T06:31:50.747Z,78.84
2019-03-15T06:32:41.307Z,78.66
2019-03-15T06:33:33.002Z,79.17
2019-03-15T06:34:23.681Z,79.20
2019-03-15T06:35:14.610Z,79.19
2019-03-15T06:36:05.140Z,79.81
2019-03-15T06:36:55.798Z,79.77
2019-03-15T06:37:46.332Z,79.79
2019-03-15T06:38:37.409Z,79.70
2019-03-15T06:39:27.681Z,79.77
2019-03-15T06:40:18.332Z,79.74
2019-03-15T06:41:09.020Z,80.57
2019-03-15T06:41:59.080Z,80.64
2019-03-15T06:42:49.623Z,80.23
2019-03-15T06:43:40.385Z,80.16
2019-03-15T06:44:31.332Z,80.27
2019-03-15T06:45:23.724Z,80.62
2019-03-15T06:46:14.830Z,79.99
2019-03-15T06:47:05.299Z,79.93
2019-03-15T06:47:56.044Z,79.77
2019-03-15T06:48:47.345Z,79.83
2019-03-15T06:49:37.770Z,80.08
2019-03-15T06:50:28.267Z,80.22
2019-03-15T06:51:18.876Z,80.73
2019-03-15T06:52:10.964Z,80.11
2019-03-15T06:53:01.478Z,80.01
2019-03-15T06:53:51.764Z,80.34
2019-03-15T06:54:42.213Z,79.88
2019-03-15T06:55:32.907Z,80.57
2019-03-15T06:56:23.937Z,79.40
2019-03-15T06:57:15.275Z,80.10
2019-03-15T06:58:06.722Z,80.02
2019-03-15T06:58:57.838Z,80.01
2019-03-15T06:59:48.101Z,80.47
2019-03-15T07:00:38.225Z,80.77
2019-03-15T07:01:29.519Z,80.21
2019-03-15T07:02:20.199Z,80.05
2019-03-15T07:03:10.943Z,80.09
2019-03-15T07:04:01.357Z,80.02
2019-03-15T07:04:52.276Z,79.90
2019-03-15T07:05:42.659Z,79.63
2019-03-15T07:06:32.948Z,79.91
2019-03-15T07:07:23.622Z,79.52
2019-03-15T07:08:14.131Z,79.36
2019-03-15T07:09:05.751Z,79.21
2019-03-15T07:09:56.312Z,79.41
2019-03-15T07:10:46.281Z,79.00
2019-03-15T07:11:37.009Z,78.78
2019-03-15T07:12:27.458Z,78.53
2019-03-15T07:13:18.938Z,78.44
2019-03-15T07:14:09.513Z,78.88
2019-03-15T07:14:59.872Z,79.16
2019-03-15T07:15:50.512Z,78.96
2019-03-15T07:16:43.515Z,77.77
2019-03-15T07:17:34.138Z,77.24
2019-03-15T07:18:24.428Z,76.68
2019-03-15T07:19:25.718Z,75.18
2019-03-15T07:20:07.705Z,75.56
2019-03-15T07:20:57.683Z,77.70
2019-03-15T07:21:48.235Z,77.59
2019-03-15T07:22:38.727Z,76.74
2019-03-15T07:23:29.380Z,76.83
2019-03-15T07:24:25.177Z,77.02
2019-03-15T07:25:10.925Z,76.47
2019-03-15T07:26:01.967Z,75.30
2019-03-15T07:26:52.674Z,75.38
2019-03-15T07:27:43.644Z,75.35
2019-03-15T07:28:34.149Z,75.52
2019-03-15T07:29:24.060Z,75.97
2019-03-15T07:30:15.146Z,75.57
2019-03-15T07:31:06.240Z,75.23
2019-03-15T07:31:57.511Z,75.39
2019-03-15T07:32:47.910Z,75.00
2019-03-15T07:33:39.236Z,74.31
2019-03-15T07:34:29.747Z,74.48
2019-03-15T07:35:20.967Z,74.66
2019-03-15T07:36:11.179Z,74.44
2019-03-15T07:37:02.564Z,74.70
2019-03-15T07:37:52.616Z,74.47
2019-03-15T07:38:43.268Z,74.58
2019-03-15T07:39:34.604Z,73.93
2019-03-15T07:40:24.963Z,74.12
2019-03-15T07:41:15.018Z,73.96
2019-03-15T07:42:06.923Z,74.01
2019-03-15T07:43:02.037Z,73.07
2019-03-15T07:43:48.549Z,73.56
2019-03-15T07:44:38.495Z,74.21
2019-03-15T07:45:28.767Z,74.81
2019-03-15T07:46:18.978Z,74.30
2019-03-15T07:47:09.209Z,73.43
2019-03-15T07:47:59.343Z,73.96
2019-03-15T07:48:51.924Z,74.82
2019-03-15T07:49:42.330Z,74.04
2019-03-15T07:50:32.266Z,74.09
2019-03-15T07:51:22.803Z,73.82
2019-03-15T07:52:13.180Z,73.99
2019-03-15T07:53:03.348Z,74.44
2019-03-15T07:53:53.431Z,73.83
2019-03-15T07:54:43.912Z,73.05
2019-03-15T07:55:34.518Z,73.14
2019-03-15T07:56:28.527Z,73.10
2019-03-15T07:57:15.988Z,73.23
2019-03-15T07:58:07.494Z,71.64
2019-03-15T07:58:57.066Z,71.96
2019-03-15T07:59:47.534Z,72.83
2019-03-15T08:00:38.011Z,73.20
2019-03-15T08:01:28.634Z,73.26
2019-03-15T08:02:18.842Z,73.32
2019-03-15T08:03:10.273Z,73.17
2019-03-15T08:04:01.186Z,73.12
2019-03-15T08:04:52.314Z,73.12
2019-03-15T08:05:42.729Z,73.28
2019-03-15T08:06:35.169Z,73.34
2019-03-15T08:07:35.468Z,74.28
2019-03-15T08:08:14.199Z,73.88
2019-03-15T08:09:07.027Z,73.90
2019-03-15T08:09:57.451Z,73.94
2019-03-15T08:10:47.733Z,74.85
2019-03-15T08:11:41.929Z,74.90
2019-03-15T08:12:32.785Z,73.96
2019-03-15T08:13:23.351Z,74.05
2019-03-15T08:14:14.064Z,73.69
2019-03-15T08:15:05.173Z,74.12
2019-03-15T08:15:55.302Z,74.54
2019-03-15T08:16:46.274Z,77.64
2019-03-15T08:17:36.925Z,77.92
2019-03-15T08:18:27.151Z,77.87
2019-03-15T08:19:17.458Z,78.06
2019-03-15T08:20:09.285Z,77.49
2019-03-15T08:20:59.986Z,77.86
2019-03-15T08:21:50.990Z,77.68
2019-03-15T08:22:41.975Z,76.42
2019-03-15T08:23:32.889Z,75.78
2019-03-15T08:24:24.058Z,76.24
2019-03-15T08:25:14.655Z,76.57
2019-03-15T08:26:05.862Z,75.56
2019-03-15T08:26:56.126Z,74.91
2019-03-15T08:27:46.885Z,77.58
2019-03-15T08:28:37.993Z,77.79
2019-03-15T08:29:28.594Z,78.06
2019-03-15T08:30:19.008Z,78.53
2019-03-15T08:31:10.379Z,79.39
2019-03-15T08:32:00.464Z,78.65
2019-03-15T08:32:51.251Z,78.31
2019-03-15T08:33:42.248Z,77.92
2019-03-15T08:34:32.435Z,77.62
2019-03-15T08:35:24.469Z,77.73
2019-03-15T08:36:13.451Z,76.32
2019-03-15T08:37:03.814Z,75.09
2019-03-15T08:37:54.151Z,74.37
2019-03-15T08:38:47.774Z,74.25
2019-03-15T08:39:34.489Z,73.75
2019-03-15T08:40:26.103Z,74.18
2019-03-15T08:41:16.195Z,74.44
2019-03-15T08:42:06.767Z,74.80
2019-03-15T08:42:57.452Z,76.33
2019-03-15T08:43:48.721Z,76.54
2019-03-15T08:44:39.552Z,75.66
2019-03-15T08:45:30.929Z,74.12
2019-03-15T08:46:21.787Z,74.10
2019-03-15T08:47:12.539Z,73.56
2019-03-15T08:48:03.323Z,72.68
2019-03-15T08:48:53.940Z,72.72
2019-03-15T08:49:44.641Z,73.17
2019-03-15T08:50:35.740Z,72.05
2019-03-15T08:51:26.355Z,71.91
2019-03-15T08:52:17.567Z,71.60
2019-03-15T08:53:08.299Z,71.72
2019-03-15T08:53:58.770Z,70.95
2019-03-15T08:54:49.110Z,71.51
2019-03-15T08:55:40.170Z,71.72
2019-03-15T08:56:30.793Z,72.78
2019-03-15T08:57:21.889Z,74.07
2019-03-15T08:58:14.549Z,74.19
2019-03-15T08:59:02.605Z,72.24
2019-03-15T08:59:57.473Z,71.10
2019-03-15T09:00:43.704Z,70.77
2019-03-15T09:01:34.377Z,71.06
2019-03-15T09:02:24.704Z,70.94
2019-03-15T09:03:27.282Z,70.30
2019-03-15T09:04:06.532Z,70.86
2019-03-15T09:04:56.963Z,70.51
2019-03-15T09:05:47.529Z,69.00
2019-03-15T09:06:40.914Z,69.41
2019-03-15T09:07:29.267Z,68.62
2019-03-15T09:08:20.198Z,68.44
2019-03-15T09:09:10.494Z,66.67
2019-03-15T09:10:03.374Z,67.08
2019-03-15T09:10:51.899Z,67.26
2019-03-15T09:11:41.867Z,67.67
2019-03-15T09:12:32.404Z,65.83
2019-03-15T09:13:22.520Z,65.71
2019-03-15T09:14:12.902Z,66.10
2019-03-15T09:15:03.712Z,65.21
2019-03-15T09:15:54.811Z,66.05
2019-03-15T09:16:44.920Z,66.44
2019-03-15T09:17:38.049Z,67.40
2019-03-15T09:18:28.731Z,67.86
2019-03-15T09:19:19.527Z,66.64
2019-03-15T09:20:09.994Z,64.72
2019-03-15T09:21:00.185Z,65.01
2019-03-15T09:21:51.445Z,65.54
2019-03-15T09:22:43.262Z,66.68
2019-03-15T09:23:33.343Z,66.99
2019-03-15T09:24:23.717Z,65.79
2019-03-15T09:25:19.772Z,65.81
2019-03-15T09:26:06.746Z,65.99
2019-03-15T09:26:57.533Z,64.42
2019-03-15T09:27:48.364Z,65.91
2019-03-15T09:28:39.624Z,65.55
2019-03-15T09:29:29.644Z,63.93
2019-03-15T09:30:24.510Z,64.71
2019-03-15T09:31:11.073Z,64.94
2019-03-15T09:32:08.683Z,63.65
2019-03-15T09:32:52.332Z,64.15
2019-03-15T09:33:42.765Z,63.43
2019-03-15T09:34:34.129Z,63.98
2019-03-15T09:35:24.821Z,64.23
2019-03-15T09:36:15.096Z,62.43
2019-03-15T09:37:06.012Z,63.77
2019-03-15T09:37:56.583Z,63.95
2019-03-15T09:38:47.823Z,63.86
2019-03-15T09:39:38.675Z,62.70
2019-03-15T09:40:29.174Z,62.39
2019-03-15T09:41:31.019Z,62.79
2019-03-15T09:42:10.685Z,62.42
2019-03-15T09:43:00.828Z,63.04
2019-03-15T09:43:51.070Z,62.32
2019-03-15T09:44:42.358Z,63.38
2019-03-15T09:45:34.109Z,62.98
2019-03-15T09:46:24.479Z,62.33
2019-03-15T09:47:15.203Z,61.95
2019-03-15T09:48:05.965Z,61.98
2019-03-15T09:48:55.963Z,61.69
2019-03-15T09:49:46.845Z,60.52
2019-03-15T09:50:50.473Z,61.23
2019-03-15T09:51:27.201Z,61.11
2019-03-15T09:52:17.879Z,61.93
2019-03-15T09:53:08.080Z,62.15
2019-03-15T09:53:59.233Z,61.91
2019-03-15T09:54:49.145Z,61.85
2019-03-15T09:55:39.321Z,60.99
2019-03-15T09:56:29.603Z,60.85
2019-03-15T09:57:20.198Z,60.92
2019-03-15T09:58:10.342Z,61.04
2019-03-15T09:59:01.153Z,60.46
2019-03-15T09:59:52.779Z,60.40
2019-03-15T10:00:43.461Z,60.15
2019-03-15T10:01:35.469Z,59.69
2019-03-15T10:02:30.293Z,58.69
2019-03-15T10:03:22.025Z,59.14
2019-03-15T10:04:05.174Z,59.80
2019-03-15T10:04:55.350Z,59.96
2019-03-15T10:05:45.528Z,58.97
2019-03-15T10:06:36.847Z,59.54
2019-03-15T10:07:37.687Z,58.25
2019-03-15T10:08:17.893Z,58.55
2019-03-15T10:09:08.556Z,58.34
2019-03-15T10:09:58.541Z,58.09
2019-03-15T10:10:49.618Z,57.68
2019-03-15T10:11:41.166Z,58.05
2019-03-15T10:12:30.999Z,58.26
2019-03-15T10:13:21.155Z,58.29
2019-03-15T10:14:11.806Z,58.74
2019-03-15T10:15:02.061Z,59.08
2019-03-15T10:15:55.409Z,59.54
2019-03-15T10:16:42.564Z,60.17
2019-03-15T10:17:33.615Z,59.31
2019-03-15T10:18:24.425Z,58.40
2019-03-15T10:19:14.381Z,57.65
2019-03-15T10:20:05.725Z,58.61
2019-03-15T10:20:55.951Z,57.91
2019-03-15T10:21:47.719Z,58.09
2019-03-15T10:22:38.036Z,58.40
2019-03-15T10:23:27.913Z,58.39
2019-03-15T10:24:18.008Z,57.66
2019-03-15T10:25:09.540Z,58.78
2019-03-15T10:26:00.571Z,58.08
2019-03-15T10:26:51.852Z,58.49
2019-03-15T10:27:42.886Z,58.22
2019-03-15T10:28:32.841Z,57.97
2019-03-15T10:29:23.413Z,57.26
2019-03-15T10:30:13.695Z,57.89
2019-03-15T10:31:03.875Z,57.44
2019-03-15T10:31:54.266Z,55.50
2019-03-15T10:32:44.776Z,56.05
2019-03-15T10:33:35.716Z,56.80
2019-03-15T10:34:27.181Z,56.80
2019-03-15T10:35:18.740Z,55.86
2019-03-15T10:36:09.215Z,56.64
2019-03-15T10:37:00.913Z,57.00
2019-03-15T10:37:51.031Z,57.57
2019-03-15T10:38:41.304Z,57.27
2019-03-15T10:39:32.388Z,56.48
2019-03-15T10:40:22.745Z,57.51
2019-03-15T10:41:12.878Z,57.42
2019-03-15T10:42:03.654Z,56.85
2019-03-15T10:42:55.714Z,56.29
2019-03-15T10:43:44.995Z,55.82
2019-03-15T10:44:35.686Z,55.94
2019-03-15T10:45:26.487Z,55.25
2019-03-15T10:46:16.237Z,55.43
2019-03-15T10:47:06.654Z,54.44
2019-03-15T10:47:57.331Z,54.33
2019-03-15T10:48:47.967Z,55.56
2019-03-15T10:49:38.494Z,56.04
2019-03-15T10:50:28.306Z,55.39
2019-03-15T10:51:19.043Z,55.50
2019-03-15T10:52:09.758Z,54.59